Weather History for Cumberland, WI

Change the Weather History Date:

Monday, January 21, 2013

  Actual Average (KRPD) Record (KRPD)
Temperature  
Mean Temperature -8 °F -  
Max Temperature -4 °F 19 °F 27 °F (2015)
Min Temperature -13 °F 3 °F 23 °F (2015)
Degree Days  
Heating Degree Days 74    
Moisture  
Dew Point -19 °F    
Average Humidity 64    
Maximum Humidity 78    
Minimum Humidity 50    
Precipitation  
Precipitation 0.00 in - - ()
Sea Level Pressure  
Sea Level Pressure 30.18 in    
Wind  
Wind Speed 11 mph (WNW)    
Max Wind Speed 16 mph    
Max Gust Speed 24 mph    
Visibility 9 miles    
Events      
Averages and records for this station are not official NWS values.
T = Trace of Precipitation, MM = Missing Value Source: NWS Daily Summary

Daily Weather History Graph

Daily Weather History Graph

Search for Another Location

Airport:

Trip Planner

Search our weather history database for the weather conditions in past years. The results will help you decide how hot, cold, wet, or windy it might be!

Date:

Astronomy

Jan. 21, 2013 Rise Set
Actual Time 7:39 AM CST 4:59 PM CST
Civil Twilight 7:07 AM CST 5:31 PM CST
Nautical Twilight 6:30 AM CST 6:08 PM CST
Astronomical Twilight 5:55 AM CST 6:43 PM CST
Moon 12:38 PM CST (1/21) 3:08 AM CST (1/21)
Length of Visible Light 10h 24m
Length of Day
9h 19m
Waxing Gibbous, 75% of the Moon is Illuminated
Jan 21
Waxing Gibbous
Jan 26
Full
Feb 3
Last Quarter
Feb 10
New
Feb 17
First Quarter

Hourly Weather History & Observations

Time (CST) Temp. Windchill Dew Point Humidity Pressure Visibility Wind Dir Wind Speed Gust Speed Precip Events Conditions
12:15 AM -4.0 °F -21.2 °F -9.4 °F 78% 30.15 in 10.0 mi WNW 10.4 mph - N/A   Scattered Clouds
12:35 AM -4.0 °F -22.1 °F -11.2 °F 71% 30.15 in 10.0 mi WNW 11.5 mph - N/A   Scattered Clouds
12:55 AM -4.0 °F -19.0 °F -13.0 °F 65% 30.14 in 10.0 mi WNW 8.1 mph - N/A   Scattered Clouds
1:15 AM -5.8 °F -26.0 °F -13.0 °F 71% 30.14 in 10.0 mi WNW 13.8 mph 20.7 mph N/A   Overcast
1:35 AM -5.8 °F -26.0 °F -14.8 °F 65% 30.15 in 10.0 mi NW 13.8 mph - N/A   Mostly Cloudy
1:55 AM -5.8 °F -25.2 °F -14.8 °F 65% 30.16 in 10.0 mi WNW 12.7 mph 16.1 mph N/A   Scattered Clouds
2:15 AM -5.8 °F -22.4 °F -14.8 °F 65% 30.16 in 7.0 mi NW 9.2 mph 19.6 mph N/A   Overcast
2:35 AM -7.6 °F -26.6 °F -14.8 °F 71% 30.16 in 10.0 mi WNW 11.5 mph 20.7 mph N/A   Mostly Cloudy
2:55 AM -7.6 °F -27.5 °F -14.8 °F 71% 30.16 in 10.0 mi NW 12.7 mph - N/A   Clear
3:15 AM -7.6 °F -26.6 °F -14.8 °F 71% 30.16 in 10.0 mi WNW 11.5 mph - N/A   Scattered Clouds
3:35 AM -7.6 °F -25.7 °F -16.6 °F 65% 30.16 in 7.0 mi NW 10.4 mph - N/A   Scattered Clouds
3:55 AM -9.4 °F -26.8 °F -14.8 °F 77% 30.16 in 7.0 mi WNW 9.2 mph - N/A   Mostly Cloudy
4:15 AM -9.4 °F -27.9 °F -16.6 °F 71% 30.16 in 10.0 mi WNW 10.4 mph - N/A   Scattered Clouds
4:55 AM -9.4 °F -26.8 °F -18.4 °F 65% 30.16 in 10.0 mi WNW 9.2 mph 16.1 mph N/A   Scattered Clouds
5:15 AM -9.4 °F -30.6 °F -18.4 °F 65% 30.16 in 10.0 mi WNW 13.8 mph 19.6 mph N/A   Scattered Clouds
5:35 AM -9.4 °F -27.9 °F -18.4 °F 65% 30.16 in 10.0 mi NW 10.4 mph - N/A   Clear
5:55 AM -11.2 °F -30.1 °F -20.2 °F 64% 30.16 in 10.0 mi WNW 10.4 mph - N/A   Clear
6:15 AM -11.2 °F -27.8 °F -22.0 °F 59% 30.17 in 10.0 mi WNW 8.1 mph - N/A   Clear
6:35 AM -13.0 °F -36.0 °F -22.0 °F 64% 30.17 in 10.0 mi WNW 15.0 mph - N/A   Clear
6:55 AM -13.0 °F -36.0 °F -23.8 °F 59% 30.17 in 10.0 mi WNW 15.0 mph 18.4 mph N/A   Clear
7:15 AM -13.0 °F -35.2 °F -23.8 °F 59% 30.17 in 10.0 mi WNW 13.8 mph 20.7 mph N/A   Clear
7:35 AM -13.0 °F -36.8 °F -23.8 °F 59% 30.18 in 10.0 mi WNW 16.1 mph 20.7 mph N/A   Clear
7:55 AM -13.0 °F -33.4 °F -23.8 °F 59% 30.19 in 10.0 mi WNW 11.5 mph - N/A   Clear
8:15 AM -13.0 °F -35.2 °F -23.8 °F 59% 30.20 in 10.0 mi WNW 13.8 mph 19.6 mph N/A   Clear
8:35 AM -13.0 °F -34.3 °F -22.0 °F 64% 30.20 in 10.0 mi NW 12.7 mph - N/A   Scattered Clouds
8:55 AM -13.0 °F -33.4 °F -22.0 °F 64% 30.20 in 4.0 mi WNW 11.5 mph 16.1 mph N/A   Haze
9:15 AM -13.0 °F -36.0 °F -22.0 °F 64% 30.22 in 2.5 mi WNW 15.0 mph 24.2 mph N/A   Haze
9:35 AM -13.0 °F -34.3 °F -22.0 °F 64% 30.22 in 4.0 mi WNW 12.7 mph 17.3 mph N/A   Haze
9:55 AM -13.0 °F -33.4 °F -22.0 °F 64% 30.22 in 4.0 mi WNW 11.5 mph - N/A   Haze
10:15 AM -13.0 °F -36.0 °F -22.0 °F 64% 30.22 in 5.0 mi NW 15.0 mph 19.6 mph N/A   Haze
10:35 AM -11.2 °F -34.4 °F -22.0 °F 59% 30.23 in 7.0 mi WNW 16.1 mph 23.0 mph N/A   Overcast
10:55 AM -11.2 °F -34.4 °F -22.0 °F 59% 30.22 in 5.0 mi WNW 16.1 mph 19.6 mph N/A   Haze
11:15 AM -11.2 °F -33.7 °F -22.0 °F 59% 30.22 in 7.0 mi WNW 15.0 mph 21.9 mph N/A   Overcast
11:35 AM -9.4 °F -28.9 °F -20.2 °F 59% 30.21 in 5.0 mi WNW 11.5 mph - N/A   Haze
11:55 AM -9.4 °F -28.9 °F -22.0 °F 54% 30.20 in 7.0 mi WNW 11.5 mph - N/A   Overcast
12:15 PM -9.4 °F -29.8 °F -20.2 °F 59% 30.19 in 7.0 mi WNW 12.7 mph 19.6 mph N/A   Overcast
12:35 PM -9.4 °F -28.9 °F -18.4 °F 65% 30.18 in 5.0 mi West 11.5 mph 18.4 mph N/A   Haze
12:55 PM -7.6 °F -29.1 °F -18.4 °F 59% 30.18 in 7.0 mi West 15.0 mph 19.6 mph N/A   Overcast
1:15 PM -7.6 °F -29.1 °F -18.4 °F 59% 30.17 in 10.0 mi WNW 15.0 mph 18.4 mph N/A   Overcast
1:35 PM -7.6 °F -25.7 °F -22.0 °F 50% 30.16 in 10.0 mi WNW 10.4 mph 16.1 mph N/A   Overcast
1:55 PM -7.6 °F -28.3 °F -20.2 °F 54% 30.16 in 10.0 mi WNW 13.8 mph 17.3 mph N/A   Mostly Cloudy
2:15 PM -7.6 °F -28.3 °F -18.4 °F 59% 30.16 in 10.0 mi West 13.8 mph 17.3 mph N/A   Mostly Cloudy
2:35 PM -7.6 °F -25.7 °F -18.4 °F 59% 30.16 in 10.0 mi West 10.4 mph - N/A   Overcast
2:55 PM -7.6 °F -28.3 °F -18.4 °F 59% 30.17 in 10.0 mi West 13.8 mph - N/A   Overcast
3:15 PM -7.6 °F -27.5 °F -18.4 °F 59% 30.17 in 10.0 mi WNW 12.7 mph - N/A   Mostly Cloudy
3:35 PM -7.6 °F -27.5 °F -18.4 °F 59% 30.17 in 10.0 mi West 12.7 mph - N/A   Mostly Cloudy
3:55 PM -7.6 °F -26.6 °F -18.4 °F 59% 30.16 in 10.0 mi WNW 11.5 mph 17.3 mph N/A   Mostly Cloudy
4:15 PM -7.6 °F -28.3 °F -18.4 °F 59% 30.17 in 10.0 mi WNW 13.8 mph - N/A   Clear
4:35 PM -7.6 °F -24.6 °F -18.4 °F 59% 30.17 in 10.0 mi West 9.2 mph - N/A   Clear
5:15 PM -9.4 °F -28.9 °F -18.4 °F 65% 30.17 in 10.0 mi West 11.5 mph 18.4 mph N/A   Clear
5:35 PM -9.4 °F -24.3 °F -18.4 °F 65% 30.17 in 10.0 mi West 6.9 mph - N/A   Clear
5:55 PM -9.4 °F -26.8 °F -18.4 °F 65% 30.18 in 10.0 mi West 9.2 mph - N/A   Clear
6:15 PM -9.4 °F -25.6 °F -18.4 °F 65% 30.18 in 10.0 mi West 8.1 mph - N/A   Clear
6:55 PM -9.4 °F -27.9 °F -18.4 °F 65% 30.18 in 10.0 mi West 10.4 mph - N/A   Clear
7:15 PM -9.4 °F -27.9 °F -18.4 °F 65% 30.19 in 10.0 mi West 10.4 mph - N/A   Clear
7:35 PM -9.4 °F -27.9 °F -18.4 °F 65% 30.19 in 10.0 mi West 10.4 mph - N/A   Clear
7:55 PM -9.4 °F -26.8 °F -18.4 °F 65% 30.19 in 10.0 mi West 9.2 mph - N/A   Clear
8:15 PM -9.4 °F -26.8 °F -18.4 °F 65% 30.19 in 10.0 mi West 9.2 mph - N/A   Clear
8:35 PM -9.4 °F -25.6 °F -18.4 °F 65% 30.19 in 10.0 mi West 8.1 mph - N/A   Clear
8:55 PM -9.4 °F -22.7 °F -18.4 °F 65% 30.20 in 10.0 mi West 5.8 mph - N/A   Clear
9:15 PM -11.2 °F -24.8 °F -18.4 °F 70% 30.20 in 10.0 mi West 5.8 mph - N/A   Clear
9:35 PM -11.2 °F -26.4 °F -18.4 °F 70% 30.20 in 10.0 mi West 6.9 mph - N/A   Clear
9:55 PM -11.2 °F -24.8 °F -18.4 °F 70% 30.20 in 10.0 mi West 5.8 mph - N/A   Clear
10:15 PM -11.2 °F -23.0 °F -18.4 °F 70% 30.20 in 10.0 mi West 4.6 mph - N/A   Clear
10:35 PM -11.2 °F -23.0 °F -18.4 °F 70% 30.20 in 10.0 mi West 4.6 mph - N/A   Clear
10:55 PM -13.0 °F -25.1 °F -18.4 °F 77% 30.20 in 10.0 mi West 4.6 mph - N/A   Clear
11:15 PM -13.0 °F -22.7 °F -18.4 °F 77% 30.20 in 10.0 mi WSW 3.5 mph - N/A   Clear
11:35 PM -13.0 °F -25.1 °F -18.4 °F 77% 30.20 in 10.0 mi West 4.6 mph - N/A   Clear
11:55 PM -13.0 °F -22.7 °F -18.4 °F 77% 30.20 in 10.0 mi WNW 3.5 mph - N/A   Clear